This is the latest recevied weather packets stored in our database for station/object WT9M-8. If no packets are shown the sender has not sent any weather packets the latest 10 day(s).
| Time | Temp. | Humidity | Pressure | Rain* | Wind** | Luminosity | Snow |
|---|---|---|---|---|---|---|---|
| 1777924830 | 27.22° C | 37% | 996.8 hPa | 0 mm | - | 422 W/m² | - |
| 1777923020 | 27.78° C | 37% | 996.7 hPa | 0 mm | - | 569 W/m² | - |
| 1777918817 | 26.67° C | 36% | 996.5 hPa | 0 mm | - | 617 W/m² | - |
| 1777914031 | 26.11° C | 38% | 997.2 hPa | 0 mm | - | 566 W/m² | - |
| 1777912219 | 25.56° C | 38% | 997.2 hPa | 0 mm | - | 512 W/m² | - |
| 1777906822 | 22.22° C | 42% | 997.5 hPa | 0 mm | - | 372 W/m² | - |
| 1777905029 | 20° C | 46% | 997.9 hPa | 0 mm | - | 312 W/m² | - |
| 1777903233 | 17.22° C | 51% | 998.4 hPa | 0 mm | - | 228 W/m² | - |
| 1777902628 | 16.67° C | 53% | 998.6 hPa | 0 mm | - | 183 W/m² | - |
| 1777897851 | 7.22° C | 89% | 999.4 hPa | 0 mm | - | 42 W/m² | - |
| 1777896036 | 2.22° C | 90% | 999.6 hPa | 0 mm | - | 21 W/m² | - |
| 1777890635 | 1.11° C | 88% | 1000.3 hPa | 0 mm | - | 0 W/m² | - |
| 1777887633 | 1.11° C | 86% | 1001.2 hPa | 0 mm | - | 0 W/m² | - |
| 1777876229 | 2.78° C | 82% | 1003.2 hPa | 0 mm | - | 0 W/m² | - |
| 1777875021 | 2.78° C | 82% | 1003.4 hPa | 0 mm | - | 0 W/m² | - |
| 1777873230 | 3.33° C | 81% | 1003.8 hPa | 0 mm | - | 0 W/m² | - |
| 1777872040 | 3.89° C | 80% | 1004 hPa | 0 mm | - | 0 W/m² | - |
| 1777870833 | 3.89° C | 81% | 1004.1 hPa | 0 mm | - | 0 W/m² | - |
| 1777869644 | 3.89° C | 79% | 1004.3 hPa | 0 mm | - | 0 W/m² | - |
| 1777866621 | 5° C | 75% | 1004.5 hPa | 0 mm | - | 0 W/m² | - |
| 1777865433 | 5.56° C | 74% | 1004.6 hPa | 0 mm | - | 0 W/m² | - |
| 1777863636 | 7.22° C | 72% | 1004.7 hPa | 0 mm | - | 0 W/m² | - |
| 1777859424 | 10.56° C | 70% | 1004 hPa | 0 mm | - | 0 W/m² | - |
| 1777855231 | 18.89° C | 42% | 1003.7 hPa | 0 mm | - | 8 W/m² | - |
| 1777854627 | 19.44° C | 40% | 1003.9 hPa | 0 mm | - | 12 W/m² | - |
* Rain latest hour (hover to see other rain measurements)
** Current wind speed in m/s (hover to see current wind gust speed)